sensor_id;sensor_type;location;lat;lon;timestamp;P1;durP1;ratioP1;P2;durP2;ratioP2
19705;SDS011;10003;52.506;4.700;2022-11-25T00:01:04;13.53;;;4.50;;
19705;SDS011;10003;52.506;4.700;2022-11-25T00:03:32;14.17;;;6.60;;
19705;SDS011;10003;52.506;4.700;2022-11-25T00:06:11;13.77;;;5.70;;
19705;SDS011;10003;52.506;4.700;2022-11-25T00:08:40;18.97;;;5.60;;
19705;SDS011;10003;52.506;4.700;2022-11-25T00:11:09;21.33;;;6.53;;
19705;SDS011;10003;52.506;4.700;2022-11-25T00:13:38;13.87;;;8.90;;
19705;SDS011;10003;52.506;4.700;2022-11-25T00:16:09;21.33;;;5.87;;
19705;SDS011;10003;52.506;4.700;2022-11-25T00:18:38;18.43;;;6.20;;
19705;SDS011;10003;52.506;4.700;2022-11-25T00:21:07;17.77;;;7.33;;
19705;SDS011;10003;52.506;4.700;2022-11-25T00:23:36;17.67;;;6.70;;
19705;SDS011;10003;52.506;4.700;2022-11-25T00:26:05;17.63;;;6.97;;
19705;SDS011;10003;52.506;4.700;2022-11-25T00:28:34;12.27;;;5.13;;
19705;SDS011;10003;52.506;4.700;2022-11-25T00:31:06;13.93;;;5.23;;
19705;SDS011;10003;52.506;4.700;2022-11-25T00:33:36;23.10;;;8.33;;
19705;SDS011;10003;52.506;4.700;2022-11-25T00:36:05;21.17;;;7.40;;
19705;SDS011;10003;52.506;4.700;2022-11-25T00:38:34;20.27;;;7.30;;
19705;SDS011;10003;52.506;4.700;2022-11-25T00:41:02;21.17;;;8.37;;
19705;SDS011;10003;52.506;4.700;2022-11-25T00:43:48;16.93;;;7.50;;
19705;SDS011;10003;52.506;4.700;2022-11-25T00:46:34;10.60;;;5.70;;
19705;SDS011;10003;52.506;4.700;2022-11-25T00:49:04;14.90;;;7.80;;
19705;SDS011;10003;52.506;4.700;2022-11-25T00:51:32;16.53;;;6.80;;
19705;SDS011;10003;52.506;4.700;2022-11-25T00:54:01;12.90;;;6.87;;
19705;SDS011;10003;52.506;4.700;2022-11-25T00:56:29;22.47;;;8.37;;
19705;SDS011;10003;52.506;4.700;2022-11-25T00:58:57;16.57;;;7.53;;
19705;SDS011;10003;52.506;4.700;2022-11-25T01:01:26;23.97;;;10.23;;
19705;SDS011;10003;52.506;4.700;2022-11-25T01:03:54;15.70;;;7.43;;
19705;SDS011;10003;52.506;4.700;2022-11-25T01:06:24;10.73;;;6.27;;
19705;SDS011;10003;52.506;4.700;2022-11-25T01:08:52;8.73;;;4.30;;
19705;SDS011;10003;52.506;4.700;2022-11-25T01:11:21;9.00;;;4.67;;
19705;SDS011;10003;52.506;4.700;2022-11-25T01:13:50;6.30;;;3.47;;
19705;SDS011;10003;52.506;4.700;2022-11-25T01:16:26;6.33;;;3.43;;
19705;SDS011;10003;52.506;4.700;2022-11-25T01:18:56;4.43;;;2.80;;
19705;SDS011;10003;52.506;4.700;2022-11-25T01:21:26;6.30;;;3.17;;
19705;SDS011;10003;52.506;4.700;2022-11-25T01:23:55;4.77;;;1.70;;
19705;SDS011;10003;52.506;4.700;2022-11-25T01:26:25;4.23;;;2.23;;
19705;SDS011;10003;52.506;4.700;2022-11-25T01:28:55;3.77;;;1.90;;
19705;SDS011;10003;52.506;4.700;2022-11-25T01:31:24;3.03;;;1.70;;
19705;SDS011;10003;52.506;4.700;2022-11-25T01:33:53;4.30;;;2.40;;
19705;SDS011;10003;52.506;4.700;2022-11-25T01:36:23;5.33;;;1.80;;
19705;SDS011;10003;52.506;4.700;2022-11-25T01:38:53;1.40;;;1.27;;
19705;SDS011;10003;52.506;4.700;2022-11-25T01:41:22;4.83;;;2.07;;
19705;SDS011;10003;52.506;4.700;2022-11-25T01:49:29;1.77;;;1.67;;
19705;SDS011;10003;52.506;4.700;2022-11-25T01:52:00;2.60;;;1.50;;
19705;SDS011;10003;52.506;4.700;2022-11-25T01:54:32;1.30;;;1.20;;
19705;SDS011;10003;52.506;4.700;2022-11-25T01:57:04;2.10;;;1.23;;
19705;SDS011;10003;52.506;4.700;2022-11-25T01:59:33;3.77;;;2.27;;
19705;SDS011;10003;52.506;4.700;2022-11-25T02:02:04;4.43;;;1.93;;
19705;SDS011;10003;52.506;4.700;2022-11-25T02:04:33;2.33;;;2.13;;
19705;SDS011;10003;52.506;4.700;2022-11-25T02:07:04;3.90;;;3.20;;
19705;SDS011;10003;52.506;4.700;2022-11-25T02:09:37;4.63;;;3.60;;
19705;SDS011;10003;52.506;4.700;2022-11-25T02:12:06;8.20;;;5.10;;
19705;SDS011;10003;52.506;4.700;2022-11-25T02:14:35;15.43;;;8.27;;
19705;SDS011;10003;52.506;4.700;2022-11-25T02:17:04;16.63;;;10.57;;
19705;SDS011;10003;52.506;4.700;2022-11-25T02:19:37;12.57;;;8.93;;
19705;SDS011;10003;52.506;4.700;2022-11-25T02:22:09;12.03;;;8.07;;
19705;SDS011;10003;52.506;4.700;2022-11-25T02:24:40;15.23;;;9.57;;
19705;SDS011;10003;52.506;4.700;2022-11-25T02:27:11;12.90;;;8.33;;
19705;SDS011;10003;52.506;4.700;2022-11-25T02:29:40;20.40;;;11.30;;
19705;SDS011;10003;52.506;4.700;2022-11-25T02:32:09;17.50;;;11.37;;
19705;SDS011;10003;52.506;4.700;2022-11-25T02:34:44;22.80;;;11.57;;
19705;SDS011;10003;52.506;4.700;2022-11-25T02:37:13;22.03;;;10.20;;
19705;SDS011;10003;52.506;4.700;2022-11-25T02:39:42;21.37;;;10.73;;
19705;SDS011;10003;52.506;4.700;2022-11-25T02:42:13;19.40;;;11.23;;
19705;SDS011;10003;52.506;4.700;2022-11-25T02:44:42;27.87;;;12.37;;
19705;SDS011;10003;52.506;4.700;2022-11-25T02:47:10;28.20;;;14.80;;
19705;SDS011;10003;52.506;4.700;2022-11-25T02:49:38;26.77;;;12.53;;
19705;SDS011;10003;52.506;4.700;2022-11-25T02:52:07;24.10;;;13.43;;
19705;SDS011;10003;52.506;4.700;2022-11-25T02:54:36;24.10;;;14.63;;
19705;SDS011;10003;52.506;4.700;2022-11-25T02:57:04;23.40;;;14.43;;
19705;SDS011;10003;52.506;4.700;2022-11-25T02:59:34;20.27;;;13.70;;
19705;SDS011;10003;52.506;4.700;2022-11-25T03:02:02;23.63;;;15.07;;
19705;SDS011;10003;52.506;4.700;2022-11-25T03:04:31;19.10;;;13.13;;
19705;SDS011;10003;52.506;4.700;2022-11-25T03:07:00;17.00;;;10.17;;
19705;SDS011;10003;52.506;4.700;2022-11-25T03:09:29;15.80;;;9.80;;
19705;SDS011;10003;52.506;4.700;2022-11-25T03:11:57;15.33;;;9.33;;
19705;SDS011;10003;52.506;4.700;2022-11-25T03:14:45;20.07;;;9.77;;
19705;SDS011;10003;52.506;4.700;2022-11-25T03:17:13;19.47;;;9.83;;
19705;SDS011;10003;52.506;4.700;2022-11-25T03:19:42;18.23;;;8.00;;
19705;SDS011;10003;52.506;4.700;2022-11-25T03:22:10;14.97;;;10.03;;
19705;SDS011;10003;52.506;4.700;2022-11-25T03:24:38;16.10;;;10.63;;
19705;SDS011;10003;52.506;4.700;2022-11-25T03:27:07;7.07;;;5.07;;
19705;SDS011;10003;52.506;4.700;2022-11-25T03:29:35;18.93;;;9.37;;
19705;SDS011;10003;52.506;4.700;2022-11-25T03:32:05;16.30;;;9.20;;
19705;SDS011;10003;52.506;4.700;2022-11-25T03:34:35;24.53;;;13.93;;
19705;SDS011;10003;52.506;4.700;2022-11-25T03:37:04;29.13;;;15.17;;
19705;SDS011;10003;52.506;4.700;2022-11-25T03:39:32;26.90;;;13.87;;
19705;SDS011;10003;52.506;4.700;2022-11-25T03:42:01;18.47;;;11.57;;
19705;SDS011;10003;52.506;4.700;2022-11-25T03:44:29;17.87;;;9.13;;
19705;SDS011;10003;52.506;4.700;2022-11-25T03:47:00;20.70;;;11.83;;
19705;SDS011;10003;52.506;4.700;2022-11-25T03:49:30;19.47;;;11.10;;
19705;SDS011;10003;52.506;4.700;2022-11-25T03:51:58;23.27;;;10.63;;
19705;SDS011;10003;52.506;4.700;2022-11-25T03:54:27;29.30;;;13.93;;
19705;SDS011;10003;52.506;4.700;2022-11-25T03:56:55;23.67;;;12.07;;
19705;SDS011;10003;52.506;4.700;2022-11-25T03:59:24;26.07;;;12.77;;
19705;SDS011;10003;52.506;4.700;2022-11-25T04:01:52;20.77;;;12.87;;
19705;SDS011;10003;52.506;4.700;2022-11-25T04:04:20;26.40;;;11.37;;
19705;SDS011;10003;52.506;4.700;2022-11-25T04:06:50;22.70;;;14.37;;
19705;SDS011;10003;52.506;4.700;2022-11-25T04:09:19;18.33;;;10.83;;
19705;SDS011;10003;52.506;4.700;2022-11-25T04:11:47;10.23;;;7.90;;
19705;SDS011;10003;52.506;4.700;2022-11-25T04:14:41;10.30;;;6.27;;
19705;SDS011;10003;52.506;4.700;2022-11-25T04:17:10;24.60;;;12.30;;
19705;SDS011;10003;52.506;4.700;2022-11-25T04:19:38;17.37;;;9.97;;
19705;SDS011;10003;52.506;4.700;2022-11-25T04:22:08;24.70;;;13.70;;
19705;SDS011;10003;52.506;4.700;2022-11-25T04:24:36;22.93;;;13.43;;
19705;SDS011;10003;52.506;4.700;2022-11-25T04:27:04;27.23;;;14.73;;
19705;SDS011;10003;52.506;4.700;2022-11-25T04:29:33;21.37;;;12.87;;
19705;SDS011;10003;52.506;4.700;2022-11-25T04:32:01;20.63;;;10.20;;
19705;SDS011;10003;52.506;4.700;2022-11-25T04:34:30;20.33;;;9.10;;
19705;SDS011;10003;52.506;4.700;2022-11-25T04:36:58;23.43;;;10.33;;
19705;SDS011;10003;52.506;4.700;2022-11-25T04:39:28;24.83;;;12.27;;
19705;SDS011;10003;52.506;4.700;2022-11-25T04:41:56;19.20;;;6.97;;
19705;SDS011;10003;52.506;4.700;2022-11-25T04:44:38;16.60;;;10.43;;
19705;SDS011;10003;52.506;4.700;2022-11-25T04:47:07;13.40;;;9.50;;
19705;SDS011;10003;52.506;4.700;2022-11-25T04:49:35;23.53;;;11.23;;
19705;SDS011;10003;52.506;4.700;2022-11-25T04:52:04;16.93;;;6.90;;
19705;SDS011;10003;52.506;4.700;2022-11-25T04:54:33;16.73;;;7.57;;
19705;SDS011;10003;52.506;4.700;2022-11-25T04:57:02;16.97;;;8.93;;
19705;SDS011;10003;52.506;4.700;2022-11-25T04:59:30;14.27;;;8.33;;
19705;SDS011;10003;52.506;4.700;2022-11-25T05:02:11;11.20;;;7.23;;
19705;SDS011;10003;52.506;4.700;2022-11-25T05:04:39;15.33;;;9.00;;
19705;SDS011;10003;52.506;4.700;2022-11-25T05:07:08;16.00;;;9.03;;
19705;SDS011;10003;52.506;4.700;2022-11-25T05:09:38;13.20;;;8.37;;
19705;SDS011;10003;52.506;4.700;2022-11-25T05:12:07;12.97;;;7.37;;
19705;SDS011;10003;52.506;4.700;2022-11-25T05:14:36;16.47;;;9.20;;
19705;SDS011;10003;52.506;4.700;2022-11-25T05:17:04;18.63;;;9.53;;
19705;SDS011;10003;52.506;4.700;2022-11-25T05:19:33;14.30;;;5.97;;
19705;SDS011;10003;52.506;4.700;2022-11-25T05:22:02;13.97;;;8.47;;
19705;SDS011;10003;52.506;4.700;2022-11-25T05:24:30;19.37;;;9.13;;
19705;SDS011;10003;52.506;4.700;2022-11-25T05:27:00;17.50;;;8.93;;
19705;SDS011;10003;52.506;4.700;2022-11-25T05:29:28;12.93;;;8.37;;
19705;SDS011;10003;52.506;4.700;2022-11-25T05:31:57;15.37;;;7.33;;
19705;SDS011;10003;52.506;4.700;2022-11-25T05:34:25;13.77;;;7.50;;
19705;SDS011;10003;52.506;4.700;2022-11-25T05:36:54;15.77;;;6.93;;
19705;SDS011;10003;52.506;4.700;2022-11-25T05:39:22;12.13;;;8.63;;
19705;SDS011;10003;52.506;4.700;2022-11-25T05:41:50;11.00;;;6.77;;
19705;SDS011;10003;52.506;4.700;2022-11-25T05:44:20;6.33;;;3.00;;
19705;SDS011;10003;52.506;4.700;2022-11-25T05:46:49;16.77;;;7.00;;
19705;SDS011;10003;52.506;4.700;2022-11-25T05:49:17;14.07;;;8.43;;
19705;SDS011;10003;52.506;4.700;2022-11-25T05:51:46;15.30;;;7.60;;
19705;SDS011;10003;52.506;4.700;2022-11-25T05:54:15;9.47;;;6.87;;
19705;SDS011;10003;52.506;4.700;2022-11-25T05:56:43;12.80;;;8.43;;
19705;SDS011;10003;52.506;4.700;2022-11-25T05:59:11;12.53;;;7.97;;
19705;SDS011;10003;52.506;4.700;2022-11-25T06:01:41;15.87;;;7.53;;
19705;SDS011;10003;52.506;4.700;2022-11-25T06:04:09;11.60;;;7.23;;
19705;SDS011;10003;52.506;4.700;2022-11-25T06:06:38;9.47;;;6.23;;
19705;SDS011;10003;52.506;4.700;2022-11-25T06:09:07;15.93;;;7.97;;
19705;SDS011;10003;52.506;4.700;2022-11-25T06:11:35;13.83;;;8.23;;
19705;SDS011;10003;52.506;4.700;2022-11-25T06:14:03;15.57;;;7.97;;
19705;SDS011;10003;52.506;4.700;2022-11-25T06:16:32;15.67;;;7.20;;
19705;SDS011;10003;52.506;4.700;2022-11-25T06:19:02;9.73;;;7.13;;
19705;SDS011;10003;52.506;4.700;2022-11-25T06:21:32;9.73;;;6.23;;
19705;SDS011;10003;52.506;4.700;2022-11-25T06:24:00;9.53;;;7.47;;
19705;SDS011;10003;52.506;4.700;2022-11-25T06:26:28;5.90;;;3.70;;
19705;SDS011;10003;52.506;4.700;2022-11-25T06:28:57;10.50;;;7.17;;
19705;SDS011;10003;52.506;4.700;2022-11-25T06:31:25;13.03;;;7.67;;
19705;SDS011;10003;52.506;4.700;2022-11-25T06:33:54;19.30;;;8.50;;
19705;SDS011;10003;52.506;4.700;2022-11-25T06:36:23;8.97;;;6.10;;
19705;SDS011;10003;52.506;4.700;2022-11-25T06:38:52;15.10;;;6.17;;
19705;SDS011;10003;52.506;4.700;2022-11-25T06:41:21;6.10;;;4.67;;
19705;SDS011;10003;52.506;4.700;2022-11-25T06:43:49;9.97;;;7.03;;
19705;SDS011;10003;52.506;4.700;2022-11-25T06:46:23;13.87;;;5.90;;
19705;SDS011;10003;52.506;4.700;2022-11-25T06:48:52;15.90;;;7.37;;
19705;SDS011;10003;52.506;4.700;2022-11-25T06:51:21;5.63;;;3.70;;
19705;SDS011;10003;52.506;4.700;2022-11-25T06:53:55;13.00;;;8.00;;
19705;SDS011;10003;52.506;4.700;2022-11-25T06:56:26;10.80;;;6.60;;
19705;SDS011;10003;52.506;4.700;2022-11-25T06:58:55;9.77;;;5.40;;
19705;SDS011;10003;52.506;4.700;2022-11-25T07:01:26;5.57;;;3.60;;
19705;SDS011;10003;52.506;4.700;2022-11-25T07:03:57;12.17;;;7.60;;
19705;SDS011;10003;52.506;4.700;2022-11-25T07:06:26;8.77;;;6.20;;
19705;SDS011;10003;52.506;4.700;2022-11-25T07:08:56;11.80;;;6.57;;
19705;SDS011;10003;52.506;4.700;2022-11-25T07:11:25;9.93;;;6.13;;
19705;SDS011;10003;52.506;4.700;2022-11-25T07:13:55;7.80;;;6.37;;
19705;SDS011;10003;52.506;4.700;2022-11-25T07:16:23;9.37;;;6.23;;
19705;SDS011;10003;52.506;4.700;2022-11-25T07:18:52;8.87;;;5.60;;
19705;SDS011;10003;52.506;4.700;2022-11-25T07:21:21;8.27;;;6.07;;
19705;SDS011;10003;52.506;4.700;2022-11-25T07:23:51;8.00;;;5.47;;
19705;SDS011;10003;52.506;4.700;2022-11-25T07:26:21;10.63;;;6.13;;
19705;SDS011;10003;52.506;4.700;2022-11-25T07:28:52;4.60;;;4.20;;
19705;SDS011;10003;52.506;4.700;2022-11-25T07:31:21;9.37;;;5.03;;
19705;SDS011;10003;52.506;4.700;2022-11-25T07:33:55;6.87;;;5.30;;
19705;SDS011;10003;52.506;4.700;2022-11-25T07:36:24;7.80;;;4.57;;
19705;SDS011;10003;52.506;4.700;2022-11-25T07:38:53;9.00;;;5.53;;
19705;SDS011;10003;52.506;4.700;2022-11-25T07:41:23;8.10;;;4.40;;
19705;SDS011;10003;52.506;4.700;2022-11-25T07:43:52;7.13;;;2.70;;
19705;SDS011;10003;52.506;4.700;2022-11-25T07:46:22;9.13;;;4.90;;
19705;SDS011;10003;52.506;4.700;2022-11-25T07:48:53;5.77;;;4.47;;
19705;SDS011;10003;52.506;4.700;2022-11-25T07:51:22;7.57;;;3.07;;
19705;SDS011;10003;52.506;4.700;2022-11-25T07:53:52;4.83;;;2.60;;
19705;SDS011;10003;52.506;4.700;2022-11-25T07:56:20;9.13;;;3.87;;
19705;SDS011;10003;52.506;4.700;2022-11-25T07:58:50;4.10;;;2.67;;
19705;SDS011;10003;52.506;4.700;2022-11-25T08:01:19;5.50;;;3.20;;
19705;SDS011;10003;52.506;4.700;2022-11-25T08:03:47;7.73;;;2.73;;
19705;SDS011;10003;52.506;4.700;2022-11-25T08:06:24;5.03;;;2.23;;
19705;SDS011;10003;52.506;4.700;2022-11-25T08:09:05;7.03;;;3.50;;
19705;SDS011;10003;52.506;4.700;2022-11-25T08:11:33;10.67;;;3.20;;
19705;SDS011;10003;52.506;4.700;2022-11-25T08:14:03;8.70;;;3.23;;
19705;SDS011;10003;52.506;4.700;2022-11-25T08:16:32;9.33;;;2.97;;
19705;SDS011;10003;52.506;4.700;2022-11-25T08:19:01;3.63;;;1.57;;
19705;SDS011;10003;52.506;4.700;2022-11-25T08:21:30;5.00;;;2.33;;
19705;SDS011;10003;52.506;4.700;2022-11-25T08:24:01;9.40;;;3.63;;
19705;SDS011;10003;52.506;4.700;2022-11-25T08:26:31;6.83;;;2.60;;
19705;SDS011;10003;52.506;4.700;2022-11-25T08:29:01;6.07;;;2.47;;
19705;SDS011;10003;52.506;4.700;2022-11-25T08:31:32;5.60;;;1.70;;
19705;SDS011;10003;52.506;4.700;2022-11-25T08:34:01;4.00;;;2.47;;
19705;SDS011;10003;52.506;4.700;2022-11-25T08:36:32;4.40;;;1.53;;
19705;SDS011;10003;52.506;4.700;2022-11-25T08:39:02;15.90;;;3.73;;
19705;SDS011;10003;52.506;4.700;2022-11-25T08:41:48;5.80;;;2.10;;
19705;SDS011;10003;52.506;4.700;2022-11-25T08:44:16;12.97;;;3.30;;
19705;SDS011;10003;52.506;4.700;2022-11-25T08:46:46;6.87;;;3.60;;
19705;SDS011;10003;52.506;4.700;2022-11-25T08:49:15;9.53;;;3.07;;
19705;SDS011;10003;52.506;4.700;2022-11-25T08:51:45;7.93;;;2.30;;
19705;SDS011;10003;52.506;4.700;2022-11-25T08:54:13;8.73;;;2.30;;
19705;SDS011;10003;52.506;4.700;2022-11-25T08:56:42;3.93;;;1.37;;
19705;SDS011;10003;52.506;4.700;2022-11-25T08:59:10;11.47;;;3.03;;
19705;SDS011;10003;52.506;4.700;2022-11-25T09:01:39;5.43;;;2.03;;
19705;SDS011;10003;52.506;4.700;2022-11-25T09:04:09;5.70;;;3.00;;
19705;SDS011;10003;52.506;4.700;2022-11-25T09:06:37;8.13;;;3.27;;
19705;SDS011;10003;52.506;4.700;2022-11-25T09:09:06;5.37;;;1.30;;
19705;SDS011;10003;52.506;4.700;2022-11-25T09:11:34;6.37;;;2.00;;
19705;SDS011;10003;52.506;4.700;2022-11-25T09:14:03;4.80;;;1.83;;
19705;SDS011;10003;52.506;4.700;2022-11-25T09:16:32;9.63;;;3.33;;
19705;SDS011;10003;52.506;4.700;2022-11-25T09:19:00;3.27;;;1.50;;
19705;SDS011;10003;52.506;4.700;2022-11-25T09:21:30;5.33;;;2.20;;
19705;SDS011;10003;52.506;4.700;2022-11-25T09:23:59;11.00;;;2.63;;
19705;SDS011;10003;52.506;4.700;2022-11-25T09:26:28;5.23;;;0.83;;
19705;SDS011;10003;52.506;4.700;2022-11-25T09:28:57;4.57;;;1.30;;
19705;SDS011;10003;52.506;4.700;2022-11-25T09:31:25;6.30;;;1.47;;
19705;SDS011;10003;52.506;4.700;2022-11-25T09:33:54;1.17;;;1.07;;
19705;SDS011;10003;52.506;4.700;2022-11-25T09:36:23;19.60;;;2.13;;
19705;SDS011;10003;52.506;4.700;2022-11-25T09:38:52;1.50;;;1.40;;
19705;SDS011;10003;52.506;4.700;2022-11-25T09:41:25;5.33;;;1.90;;
19705;SDS011;10003;52.506;4.700;2022-11-25T09:44:17;5.50;;;1.33;;
19705;SDS011;10003;52.506;4.700;2022-11-25T09:47:06;5.33;;;4.10;;
19705;SDS011;10003;52.506;4.700;2022-11-25T09:49:39;6.33;;;1.47;;
19705;SDS011;10003;52.506;4.700;2022-11-25T09:52:12;6.43;;;1.87;;
19705;SDS011;10003;52.506;4.700;2022-11-25T09:54:48;3.60;;;1.63;;
19705;SDS011;10003;52.506;4.700;2022-11-25T09:57:19;3.73;;;2.03;;
19705;SDS011;10003;52.506;4.700;2022-11-25T09:59:52;2.60;;;2.30;;
19705;SDS011;10003;52.506;4.700;2022-11-25T10:02:25;8.53;;;1.57;;
19705;SDS011;10003;52.506;4.700;2022-11-25T10:04:57;8.83;;;3.20;;
19705;SDS011;10003;52.506;4.700;2022-11-25T10:07:28;1.60;;;1.07;;
19705;SDS011;10003;52.506;4.700;2022-11-25T10:10:00;6.73;;;1.53;;
19705;SDS011;10003;52.506;4.700;2022-11-25T10:12:31;5.43;;;2.03;;
19705;SDS011;10003;52.506;4.700;2022-11-25T10:15:02;5.03;;;1.13;;
19705;SDS011;10003;52.506;4.700;2022-11-25T10:17:32;3.73;;;1.43;;
19705;SDS011;10003;52.506;4.700;2022-11-25T10:20:04;2.47;;;2.13;;
19705;SDS011;10003;52.506;4.700;2022-11-25T10:22:34;3.43;;;1.13;;
19705;SDS011;10003;52.506;4.700;2022-11-25T10:25:11;9.30;;;1.63;;
19705;SDS011;10003;52.506;4.700;2022-11-25T10:27:41;0.50;;;0.50;;
19705;SDS011;10003;52.506;4.700;2022-11-25T10:30:12;1.23;;;1.13;;
19705;SDS011;10003;52.506;4.700;2022-11-25T10:32:43;7.17;;;1.33;;
19705;SDS011;10003;52.506;4.700;2022-11-25T10:35:16;3.40;;;1.93;;
19705;SDS011;10003;52.506;4.700;2022-11-25T10:37:47;2.50;;;1.73;;
19705;SDS011;10003;52.506;4.700;2022-11-25T10:40:21;0.80;;;0.60;;
19705;SDS011;10003;52.506;4.700;2022-11-25T10:42:50;1.27;;;1.17;;
19705;SDS011;10003;52.506;4.700;2022-11-25T10:45:19;5.00;;;1.53;;
19705;SDS011;10003;52.506;4.700;2022-11-25T10:47:54;6.00;;;1.50;;
19705;SDS011;10003;52.506;4.700;2022-11-25T10:50:26;10.73;;;1.33;;
19705;SDS011;10003;52.506;4.700;2022-11-25T10:52:56;5.47;;;2.00;;
19705;SDS011;10003;52.506;4.700;2022-11-25T10:55:27;1.40;;;1.07;;
19705;SDS011;10003;52.506;4.700;2022-11-25T10:57:57;4.33;;;1.97;;
19705;SDS011;10003;52.506;4.700;2022-11-25T11:00:27;5.30;;;1.70;;
19705;SDS011;10003;52.506;4.700;2022-11-25T11:02:56;8.63;;;1.83;;
19705;SDS011;10003;52.506;4.700;2022-11-25T11:05:25;1.77;;;1.67;;
19705;SDS011;10003;52.506;4.700;2022-11-25T11:10:43;7.23;;;2.00;;
19705;SDS011;10003;52.506;4.700;2022-11-25T11:13:19;3.43;;;1.27;;
19705;SDS011;10003;52.506;4.700;2022-11-25T11:15:48;6.13;;;2.33;;
19705;SDS011;10003;52.506;4.700;2022-11-25T11:18:22;7.07;;;2.27;;
19705;SDS011;10003;52.506;4.700;2022-11-25T11:20:52;6.13;;;2.17;;
19705;SDS011;10003;52.506;4.700;2022-11-25T11:23:21;8.07;;;1.70;;
19705;SDS011;10003;52.506;4.700;2022-11-25T11:26:05;9.87;;;1.80;;
19705;SDS011;10003;52.506;4.700;2022-11-25T11:28:39;6.23;;;3.77;;
19705;SDS011;10003;52.506;4.700;2022-11-25T11:31:14;3.47;;;1.37;;
19705;SDS011;10003;52.506;4.700;2022-11-25T11:33:49;1.63;;;1.53;;
19705;SDS011;10003;52.506;4.700;2022-11-25T11:36:24;4.50;;;1.93;;
19705;SDS011;10003;52.506;4.700;2022-11-25T11:38:55;1.00;;;0.87;;
19705;SDS011;10003;52.506;4.700;2022-11-25T11:41:33;6.37;;;2.07;;
19705;SDS011;10003;52.506;4.700;2022-11-25T11:44:07;6.60;;;1.97;;
19705;SDS011;10003;52.506;4.700;2022-11-25T11:46:44;6.40;;;1.83;;
19705;SDS011;10003;52.506;4.700;2022-11-25T11:49:18;3.20;;;1.33;;
19705;SDS011;10003;52.506;4.700;2022-11-25T11:51:57;7.00;;;2.90;;
19705;SDS011;10003;52.506;4.700;2022-11-25T11:54:28;2.23;;;2.20;;
19705;SDS011;10003;52.506;4.700;2022-11-25T11:57:01;6.17;;;2.23;;
19705;SDS011;10003;52.506;4.700;2022-11-25T12:05:01;7.80;;;3.10;;
19705;SDS011;10003;52.506;4.700;2022-11-25T12:07:32;6.67;;;2.27;;
19705;SDS011;10003;52.506;4.700;2022-11-25T12:10:02;1.00;;;1.00;;
19705;SDS011;10003;52.506;4.700;2022-11-25T12:12:35;3.20;;;1.83;;
19705;SDS011;10003;52.506;4.700;2022-11-25T12:15:08;3.60;;;2.57;;
19705;SDS011;10003;52.506;4.700;2022-11-25T12:17:40;2.03;;;1.47;;
19705;SDS011;10003;52.506;4.700;2022-11-25T12:20:13;0.97;;;0.80;;
19705;SDS011;10003;52.506;4.700;2022-11-25T12:22:43;3.20;;;1.50;;
19705;SDS011;10003;52.506;4.700;2022-11-25T12:25:15;6.83;;;2.43;;
19705;SDS011;10003;52.506;4.700;2022-11-25T12:27:47;4.63;;;1.20;;
19705;SDS011;10003;52.506;4.700;2022-11-25T12:30:18;12.00;;;2.47;;
19705;SDS011;10003;52.506;4.700;2022-11-25T12:32:56;7.77;;;2.67;;
19705;SDS011;10003;52.506;4.700;2022-11-25T12:35:29;12.47;;;3.70;;
19705;SDS011;10003;52.506;4.700;2022-11-25T12:38:01;3.80;;;1.50;;
19705;SDS011;10003;52.506;4.700;2022-11-25T12:40:32;6.90;;;2.07;;
19705;SDS011;10003;52.506;4.700;2022-11-25T12:43:09;6.80;;;1.70;;
19705;SDS011;10003;52.506;4.700;2022-11-25T12:45:38;4.53;;;2.30;;
19705;SDS011;10003;52.506;4.700;2022-11-25T12:48:09;4.63;;;1.27;;
19705;SDS011;10003;52.506;4.700;2022-11-25T12:50:48;3.23;;;1.27;;
19705;SDS011;10003;52.506;4.700;2022-11-25T12:53:20;5.87;;;2.87;;
19705;SDS011;10003;52.506;4.700;2022-11-25T12:55:50;6.10;;;1.93;;
19705;SDS011;10003;52.506;4.700;2022-11-25T13:01:18;0.70;;;0.70;;
19705;SDS011;10003;52.506;4.700;2022-11-25T13:03:59;7.73;;;2.20;;
19705;SDS011;10003;52.506;4.700;2022-11-25T13:06:46;8.40;;;4.77;;
19705;SDS011;10003;52.506;4.700;2022-11-25T13:09:28;8.73;;;3.30;;
19705;SDS011;10003;52.506;4.700;2022-11-25T13:12:11;11.43;;;1.23;;
19705;SDS011;10003;52.506;4.700;2022-11-25T13:14:52;1.00;;;0.90;;
19705;SDS011;10003;52.506;4.700;2022-11-25T13:17:27;6.90;;;1.80;;
19705;SDS011;10003;52.506;4.700;2022-11-25T13:22:39;10.20;;;1.90;;
19705;SDS011;10003;52.506;4.700;2022-11-25T13:25:19;0.77;;;0.77;;
19705;SDS011;10003;52.506;4.700;2022-11-25T13:27:55;3.73;;;1.70;;
19705;SDS011;10003;52.506;4.700;2022-11-25T13:30:34;4.30;;;1.57;;
19705;SDS011;10003;52.506;4.700;2022-11-25T13:35:48;5.97;;;2.20;;
19705;SDS011;10003;52.506;4.700;2022-11-25T13:38:33;5.97;;;2.37;;
19705;SDS011;10003;52.506;4.700;2022-11-25T13:41:03;3.20;;;1.40;;
19705;SDS011;10003;52.506;4.700;2022-11-25T13:43:31;4.00;;;2.40;;
19705;SDS011;10003;52.506;4.700;2022-11-25T13:46:00;1.83;;;1.30;;
19705;SDS011;10003;52.506;4.700;2022-11-25T13:48:29;3.03;;;1.13;;
19705;SDS011;10003;52.506;4.700;2022-11-25T13:53:51;4.93;;;1.33;;
19705;SDS011;10003;52.506;4.700;2022-11-25T13:56:27;2.93;;;1.77;;
19705;SDS011;10003;52.506;4.700;2022-11-25T14:01:50;4.63;;;2.37;;
19705;SDS011;10003;52.506;4.700;2022-11-25T14:04:23;11.80;;;2.70;;
19705;SDS011;10003;52.506;4.700;2022-11-25T14:07:04;0.77;;;0.77;;
19705;SDS011;10003;52.506;4.700;2022-11-25T14:09:48;12.27;;;2.93;;
19705;SDS011;10003;52.506;4.700;2022-11-25T14:12:26;9.17;;;2.40;;
19705;SDS011;10003;52.506;4.700;2022-11-25T14:14:58;5.87;;;1.17;;
19705;SDS011;10003;52.506;4.700;2022-11-25T14:17:38;7.57;;;1.80;;
19705;SDS011;10003;52.506;4.700;2022-11-25T14:20:16;6.87;;;1.70;;
19705;SDS011;10003;52.506;4.700;2022-11-25T14:22:55;1.43;;;1.33;;
19705;SDS011;10003;52.506;4.700;2022-11-25T14:25:32;0.40;;;0.40;;
19705;SDS011;10003;52.506;4.700;2022-11-25T14:28:13;3.10;;;1.23;;
19705;SDS011;10003;52.506;4.700;2022-11-25T14:30:44;3.10;;;1.53;;
19705;SDS011;10003;52.506;4.700;2022-11-25T14:33:19;7.03;;;1.93;;
19705;SDS011;10003;52.506;4.700;2022-11-25T14:35:51;10.23;;;3.40;;
19705;SDS011;10003;52.506;4.700;2022-11-25T14:38:24;3.97;;;1.93;;
19705;SDS011;10003;52.506;4.700;2022-11-25T14:40:57;9.30;;;2.27;;
19705;SDS011;10003;52.506;4.700;2022-11-25T14:43:29;8.13;;;1.57;;
19705;SDS011;10003;52.506;4.700;2022-11-25T14:46:07;6.47;;;2.70;;
19705;SDS011;10003;52.506;4.700;2022-11-25T14:48:37;7.93;;;2.80;;
19705;SDS011;10003;52.506;4.700;2022-11-25T14:51:06;4.60;;;2.30;;
19705;SDS011;10003;52.506;4.700;2022-11-25T14:53:39;5.63;;;1.20;;
19705;SDS011;10003;52.506;4.700;2022-11-25T14:56:16;0.90;;;0.90;;
19705;SDS011;10003;52.506;4.700;2022-11-25T14:58:49;2.10;;;1.73;;
19705;SDS011;10003;52.506;4.700;2022-11-25T15:01:18;3.40;;;1.50;;
19705;SDS011;10003;52.506;4.700;2022-11-25T15:03:48;0.70;;;0.70;;
19705;SDS011;10003;52.506;4.700;2022-11-25T15:06:17;8.60;;;2.83;;
19705;SDS011;10003;52.506;4.700;2022-11-25T15:08:52;3.93;;;1.83;;
19705;SDS011;10003;52.506;4.700;2022-11-25T15:11:23;1.40;;;1.00;;
19705;SDS011;10003;52.506;4.700;2022-11-25T15:13:53;1.37;;;1.27;;
19705;SDS011;10003;52.506;4.700;2022-11-25T15:16:24;5.03;;;2.67;;
19705;SDS011;10003;52.506;4.700;2022-11-25T15:18:56;3.60;;;1.83;;
19705;SDS011;10003;52.506;4.700;2022-11-25T15:21:26;0.77;;;0.77;;
19705;SDS011;10003;52.506;4.700;2022-11-25T15:23:56;7.90;;;4.43;;
19705;SDS011;10003;52.506;4.700;2022-11-25T15:26:26;1.33;;;1.33;;
19705;SDS011;10003;52.506;4.700;2022-11-25T15:28:55;2.40;;;2.20;;
19705;SDS011;10003;52.506;4.700;2022-11-25T15:31:25;0.50;;;0.50;;